createdAt,value
2023-04-03T00:00:45.636Z,58.70
2023-04-03T00:03:54.616Z,59.65
2023-04-03T00:06:58.255Z,59.23
2023-04-03T00:10:02.023Z,58.89
2023-04-03T00:13:07.890Z,58.64
2023-04-03T00:16:13.130Z,58.80
2023-04-03T00:19:16.695Z,58.78
2023-04-03T00:22:20.518Z,58.93
2023-04-03T00:25:24.423Z,58.81
2023-04-03T00:28:29.689Z,58.66
2023-04-03T00:31:33.203Z,58.61
2023-04-03T00:34:37.026Z,58.21
2023-04-03T00:37:40.545Z,58.28
2023-04-03T00:40:49.194Z,58.18
2023-04-03T00:43:54.577Z,58.20
2023-04-03T00:46:58.489Z,58.34
2023-04-03T00:50:01.995Z,58.75
2023-04-03T00:53:07.263Z,59.15
2023-04-03T00:56:15.008Z,60.74
2023-04-03T00:59:27.523Z,59.91
2023-04-03T01:02:31.104Z,60.03
2023-04-03T01:05:35.432Z,60.64
2023-04-03T01:08:39.082Z,60.05
2023-04-03T01:11:43.335Z,60.36
2023-04-03T01:14:50.837Z,60.47
2023-04-03T01:17:57.558Z,60.18
2023-04-03T01:21:31.380Z,59.95
2023-04-03T01:24:39.998Z,60.02
2023-04-03T01:27:46.224Z,60.38
2023-04-03T01:30:58.897Z,60.31
2023-04-03T01:34:04.587Z,60.21
2023-04-03T01:37:10.000Z,60.11
2023-04-03T01:40:13.796Z,60.17
2023-04-03T01:43:17.792Z,60.05
2023-04-03T01:46:22.039Z,59.69
2023-04-03T01:49:27.465Z,60.34
2023-04-03T01:52:31.733Z,59.99
2023-04-03T01:55:36.196Z,59.85
2023-04-03T01:58:39.874Z,60.90
2023-04-03T02:01:44.535Z,60.91
2023-04-03T02:04:49.448Z,61.54
2023-04-03T02:07:53.318Z,61.00
2023-04-03T02:10:56.809Z,61.33
2023-04-03T02:14:00.957Z,62.45
2023-04-03T02:17:09.580Z,63.17
2023-04-03T02:20:14.977Z,62.30
2023-04-03T02:23:18.575Z,62.03
2023-04-03T02:26:22.669Z,64.35
2023-04-03T02:29:26.227Z,64.59
2023-04-03T02:32:30.803Z,63.93
2023-04-03T02:35:37.907Z,64.97
2023-04-03T02:38:42.540Z,65.63
2023-04-03T02:41:47.325Z,66.27
2023-04-03T02:44:58.127Z,69.42
2023-04-03T02:48:02.964Z,70.30
2023-04-03T02:51:08.500Z,70.50
2023-04-03T02:54:12.005Z,72.14
2023-04-03T02:57:20.793Z,72.94
2023-04-03T03:00:24.572Z,72.13
2023-04-03T03:03:28.388Z,72.06
2023-04-03T03:06:33.313Z,72.12
2023-04-03T03:09:37.199Z,72.36
2023-04-03T03:12:41.570Z,72.00
2023-04-03T03:15:45.329Z,71.53
2023-04-03T03:18:48.998Z,71.35
2023-04-03T03:21:54.488Z,70.03
2023-04-03T03:24:59.762Z,70.22
2023-04-03T03:28:03.716Z,70.14
2023-04-03T03:31:08.212Z,72.22
2023-04-03T03:34:14.206Z,71.79
2023-04-03T03:37:19.170Z,71.12
2023-04-03T03:40:23.546Z,71.54
2023-04-03T03:43:27.009Z,72.70
2023-04-03T03:46:31.706Z,72.33
2023-04-03T03:49:35.442Z,72.39
2023-04-03T03:52:41.178Z,72.80
2023-04-03T03:55:44.541Z,73.02
2023-04-03T03:58:48.711Z,71.95
2023-04-03T04:01:52.425Z,73.57
2023-04-03T04:04:56.386Z,71.86
2023-04-03T04:08:01.421Z,72.65
2023-04-03T04:11:05.316Z,71.84
2023-04-03T04:14:13.516Z,71.22
2023-04-03T04:17:18.945Z,70.26
2023-04-03T04:20:23.140Z,73.06
2023-04-03T04:23:28.461Z,74.17
2023-04-03T04:26:32.009Z,77.20
2023-04-03T04:29:37.510Z,74.29
2023-04-03T04:32:43.709Z,74.50
2023-04-03T04:35:49.747Z,74.10
2023-04-03T04:38:56.685Z,75.26
2023-04-03T04:42:02.980Z,73.92
2023-04-03T04:45:09.643Z,72.18
2023-04-03T04:48:14.969Z,71.50
2023-04-03T04:51:19.259Z,72.11
2023-04-03T04:54:25.523Z,70.87
2023-04-03T04:57:29.801Z,70.64
2023-04-03T05:00:35.750Z,70.23
2023-04-03T05:03:40.651Z,70.07
2023-04-03T05:06:44.948Z,71.24
2023-04-03T05:09:54.420Z,72.31
2023-04-03T05:12:58.717Z,73.97
2023-04-03T05:16:02.534Z,74.10
2023-04-03T05:19:06.771Z,72.04
2023-04-03T05:22:11.034Z,73.12
2023-04-03T05:25:16.468Z,78.29
2023-04-03T05:28:21.418Z,74.79
2023-04-03T05:31:25.589Z,72.93
2023-04-03T05:34:29.189Z,72.32
2023-04-03T05:37:33.955Z,73.83
2023-04-03T05:40:39.525Z,73.06
2023-04-03T05:43:44.421Z,73.38
2023-04-03T05:46:48.537Z,71.04
2023-04-03T05:49:52.749Z,71.13
2023-04-03T05:53:00.155Z,69.18
2023-04-03T05:56:08.653Z,69.13
2023-04-03T05:59:16.808Z,70.35
2023-04-03T06:02:24.006Z,71.81
2023-04-03T06:05:28.917Z,72.77
2023-04-03T06:08:33.097Z,74.04
2023-04-03T06:11:38.073Z,72.78
2023-04-03T06:14:42.107Z,72.28
2023-04-03T06:17:46.251Z,72.53
2023-04-03T06:20:50.789Z,75.16
2023-04-03T06:23:54.330Z,73.80
2023-04-03T06:27:00.835Z,72.47
2023-04-03T06:30:04.545Z,72.31
2023-04-03T06:33:08.426Z,74.83
2023-04-03T06:36:13.741Z,72.92
2023-04-03T06:39:21.032Z,73.32
2023-04-03T06:42:26.044Z,73.24
2023-04-03T06:45:41.615Z,71.74
2023-04-03T06:48:46.028Z,71.81
2023-04-03T06:51:49.898Z,73.54
2023-04-03T06:54:58.082Z,73.57
2023-04-03T06:58:04.924Z,73.03
2023-04-03T07:01:08.644Z,71.89
2023-04-03T07:04:12.697Z,71.87
2023-04-03T07:07:16.596Z,71.51
2023-04-03T07:10:21.160Z,71.83
2023-04-03T07:13:26.310Z,71.00
2023-04-03T07:16:32.008Z,71.13
2023-04-03T07:19:35.631Z,70.56
2023-04-03T07:22:39.809Z,72.01
2023-04-03T07:25:45.201Z,71.03
2023-04-03T07:28:51.006Z,69.67
2023-04-03T07:31:54.595Z,73.66
2023-04-03T07:34:58.640Z,71.31
2023-04-03T07:38:02.510Z,70.66
2023-04-03T07:41:06.881Z,72.76
2023-04-03T07:44:11.970Z,72.06
2023-04-03T07:47:17.780Z,71.99
2023-04-03T07:50:21.805Z,72.19
2023-04-03T07:53:26.286Z,73.85
2023-04-03T07:56:30.012Z,71.35
2023-04-03T07:59:35.484Z,73.47
2023-04-03T08:02:39.065Z,73.89
2023-04-03T08:05:45.482Z,72.36
2023-04-03T08:08:49.146Z,73.76
2023-04-03T08:11:54.633Z,71.82
2023-04-03T08:15:01.465Z,73.56
2023-04-03T08:18:06.023Z,72.79
2023-04-03T08:21:10.849Z,73.53
2023-04-03T08:24:14.673Z,71.94
2023-04-03T08:27:18.597Z,71.18
2023-04-03T08:30:24.077Z,73.50
2023-04-03T08:33:28.368Z,71.46
2023-04-03T08:36:32.507Z,73.15
2023-04-03T08:39:35.905Z,71.94
2023-04-03T08:42:50.341Z,71.50
2023-04-03T08:45:57.691Z,69.59
2023-04-03T08:49:02.073Z,70.63
2023-04-03T08:52:12.213Z,71.62
2023-04-03T08:55:24.358Z,71.49
2023-04-03T08:58:31.854Z,71.76
2023-04-03T09:01:39.317Z,70.62
2023-04-03T09:04:42.844Z,70.22
2023-04-03T09:07:50.138Z,71.35
2023-04-03T09:11:08.325Z,69.40
2023-04-03T09:14:22.511Z,70.35
2023-04-03T09:17:43.257Z,70.79
2023-04-03T09:20:56.084Z,70.48
2023-04-03T09:24:02.812Z,69.57
2023-04-03T09:27:09.750Z,68.29
2023-04-03T09:30:17.167Z,67.29
2023-04-03T09:33:23.703Z,67.74
2023-04-03T09:36:44.915Z,69.21
2023-04-03T09:39:54.649Z,68.20
2023-04-03T09:43:01.587Z,72.63
2023-04-03T09:46:21.405Z,69.55
2023-04-03T09:49:28.348Z,70.28
2023-04-03T09:52:33.229Z,70.35
2023-04-03T09:55:44.982Z,70.15
2023-04-03T09:58:51.878Z,70.68
2023-04-03T10:02:02.017Z,70.97
2023-04-03T10:05:28.844Z,71.69
2023-04-03T10:08:35.711Z,72.32
2023-04-03T10:11:40.013Z,71.36
2023-04-03T10:14:58.242Z,69.75
2023-04-03T10:18:21.680Z,70.93
2023-04-03T10:21:41.741Z,71.14
2023-04-03T10:24:54.191Z,71.92
2023-04-03T10:28:02.572Z,74.14
2023-04-03T10:31:16.011Z,72.82
2023-04-03T10:34:26.774Z,72.41
2023-04-03T10:37:41.378Z,71.81
2023-04-03T10:40:54.165Z,72.69
2023-04-03T10:44:10.857Z,73.61
2023-04-03T10:47:20.844Z,73.83
2023-04-03T10:50:39.172Z,73.23
2023-04-03T10:53:53.983Z,73.58
2023-04-03T10:57:10.823Z,72.77
2023-04-03T11:00:20.388Z,72.86
2023-04-03T11:03:33.330Z,70.73
2023-04-03T11:06:41.890Z,71.18
2023-04-03T11:09:51.058Z,70.64
2023-04-03T11:13:01.933Z,71.05
2023-04-03T11:16:07.610Z,70.12
2023-04-03T11:19:22.705Z,69.74
2023-04-03T11:22:32.735Z,69.54
2023-04-03T11:25:41.895Z,69.36
2023-04-03T11:28:48.179Z,68.91
2023-04-03T11:32:12.219Z,68.74
2023-04-03T11:35:17.611Z,69.41
2023-04-03T11:38:27.564Z,69.25
2023-04-03T11:41:34.003Z,69.16
2023-04-03T11:44:39.762Z,69.84
2023-04-03T11:47:49.447Z,69.03
2023-04-03T11:50:53.352Z,69.07
2023-04-03T11:54:17.251Z,68.49
2023-04-03T11:57:57.903Z,67.67
2023-04-03T12:01:09.165Z,69.02
2023-04-03T12:04:16.088Z,68.72
2023-04-03T12:07:21.739Z,68.33
2023-04-03T12:10:32.146Z,67.67
2023-04-03T12:13:37.507Z,67.32
2023-04-03T12:16:48.374Z,68.48
2023-04-03T12:19:52.835Z,68.03
2023-04-03T12:23:26.342Z,69.02
2023-04-03T12:26:42.074Z,69.17
2023-04-03T12:29:58.310Z,68.58
2023-04-03T12:33:23.195Z,68.17
2023-04-03T12:36:37.117Z,67.85
2023-04-03T12:39:55.139Z,67.34
2023-04-03T12:43:29.948Z,67.95
2023-04-03T12:46:40.882Z,68.12
2023-04-03T12:49:46.259Z,67.66
2023-04-03T12:52:56.372Z,67.62
2023-04-03T12:56:20.357Z,68.15
2023-04-03T12:59:27.299Z,68.53
2023-04-03T13:02:34.845Z,67.88
2023-04-03T13:05:40.703Z,68.52
2023-04-03T13:08:51.312Z,68.96
2023-04-03T13:12:01.517Z,69.11
2023-04-03T13:15:18.803Z,69.62
2023-04-03T13:18:28.031Z,69.41
2023-04-03T13:21:36.755Z,69.71
2023-04-03T13:24:41.364Z,71.35
2023-04-03T13:27:46.450Z,71.15
2023-04-03T13:31:01.361Z,71.37
2023-04-03T13:34:09.517Z,71.25
2023-04-03T13:37:24.583Z,72.32
2023-04-03T13:40:32.369Z,72.22
2023-04-03T13:43:41.340Z,71.95
2023-04-03T13:46:46.260Z,73.10
2023-04-03T13:50:02.714Z,72.30
2023-04-03T13:53:15.897Z,72.38
2023-04-03T13:56:26.460Z,72.50
2023-04-03T13:59:32.036Z,73.06
2023-04-03T14:02:36.805Z,74.01
2023-04-03T14:05:40.935Z,73.39
2023-04-03T14:08:47.248Z,74.15
2023-04-03T14:11:53.797Z,73.50
2023-04-03T14:14:58.011Z,73.00
2023-04-03T14:18:03.900Z,74.32
2023-04-03T14:21:08.927Z,73.31
2023-04-03T14:24:14.085Z,72.87
2023-04-03T14:27:22.001Z,72.96
2023-04-03T14:30:28.968Z,73.43
2023-04-03T14:33:35.855Z,73.38
2023-04-03T14:36:40.215Z,73.73
2023-04-03T14:39:46.339Z,73.93
2023-04-03T14:42:49.983Z,74.98
2023-04-03T14:45:53.877Z,75.00
2023-04-03T14:48:57.596Z,74.91
2023-04-03T14:52:01.708Z,74.43
2023-04-03T14:55:09.812Z,73.52
2023-04-03T14:58:17.284Z,73.40
2023-04-03T15:01:21.202Z,73.81
2023-04-03T15:04:26.370Z,73.45
2023-04-03T15:07:32.470Z,72.89
2023-04-03T15:10:38.216Z,72.47
2023-04-03T15:13:42.313Z,72.55
2023-04-03T15:16:46.833Z,72.20
2023-04-03T15:19:50.785Z,72.41
2023-04-03T15:22:57.300Z,72.97
2023-04-03T15:26:02.557Z,72.02
2023-04-03T15:29:07.333Z,72.96
2023-04-03T15:32:11.759Z,73.36
2023-04-03T15:35:16.321Z,73.91
2023-04-03T15:38:20.405Z,73.58
2023-04-03T15:41:26.128Z,72.60
2023-04-03T15:44:29.872Z,73.54
2023-04-03T15:47:34.184Z,73.68
2023-04-03T15:50:38.383Z,73.35
2023-04-03T15:53:43.232Z,73.45
2023-04-03T15:56:48.123Z,72.76
2023-04-03T15:59:52.372Z,72.59
2023-04-03T16:02:59.963Z,72.76
2023-04-03T16:06:03.847Z,73.27
2023-04-03T16:09:08.474Z,74.32
2023-04-03T16:12:13.973Z,74.58
2023-04-03T16:15:17.491Z,74.46
2023-04-03T16:18:21.261Z,74.84
2023-04-03T16:21:25.743Z,75.10
2023-04-03T16:24:29.658Z,74.67
2023-04-03T16:27:34.811Z,74.42
2023-04-03T16:30:38.532Z,74.67
2023-04-03T16:33:42.307Z,75.18
2023-04-03T16:36:46.564Z,74.08
2023-04-03T16:39:50.112Z,74.27
2023-04-03T16:42:55.803Z,74.52
2023-04-03T16:45:59.952Z,73.29
2023-04-03T16:49:04.237Z,72.75
2023-04-03T16:52:07.984Z,72.17
2023-04-03T16:55:11.683Z,72.15
2023-04-03T16:58:16.833Z,74.04
2023-04-03T17:01:22.838Z,74.30
2023-04-03T17:04:27.367Z,74.07
2023-04-03T17:07:31.666Z,74.08
2023-04-03T17:10:36.393Z,73.58
2023-04-03T17:13:41.820Z,73.85
2023-04-03T17:16:45.592Z,74.91
2023-04-03T17:19:50.166Z,76.06
2023-04-03T17:22:53.711Z,75.22
2023-04-03T17:25:57.946Z,75.43
2023-04-03T17:29:03.017Z,75.35
2023-04-03T17:32:07.581Z,75.12
2023-04-03T17:35:12.237Z,75.31
2023-04-03T17:38:16.416Z,76.17
2023-04-03T17:41:20.948Z,75.85
2023-04-03T17:44:27.292Z,76.34
2023-04-03T17:47:30.924Z,76.28
2023-04-03T17:50:35.456Z,76.56
2023-04-03T17:53:39.130Z,77.69
2023-04-03T17:56:47.881Z,77.37
2023-04-03T17:59:54.225Z,76.94
2023-04-03T18:02:58.704Z,76.58
2023-04-03T18:06:05.353Z,76.84
2023-04-03T18:09:14.715Z,76.33
2023-04-03T18:12:18.538Z,76.01
2023-04-03T18:15:25.819Z,76.08
2023-04-03T18:18:29.666Z,76.39
2023-04-03T18:21:34.697Z,75.79
2023-04-03T18:24:38.538Z,75.94
2023-04-03T18:27:44.668Z,75.81
2023-04-03T18:30:50.574Z,74.96
2023-04-03T18:33:59.050Z,75.72
2023-04-03T18:37:03.298Z,75.77
2023-04-03T18:40:09.540Z,75.53
2023-04-03T18:43:14.915Z,75.19
2023-04-03T18:46:20.534Z,75.13
2023-04-03T18:49:24.491Z,74.44
2023-04-03T18:52:28.552Z,74.41
2023-04-03T18:55:32.297Z,73.25
2023-04-03T18:58:36.718Z,72.33
2023-04-03T19:01:42.325Z,71.65
2023-04-03T19:04:47.920Z,71.35
2023-04-03T19:07:52.513Z,70.66
2023-04-03T19:10:56.838Z,70.81
2023-04-03T19:17:09.464Z,68.86
2023-04-03T19:20:14.234Z,72.14
2023-04-03T19:23:19.034Z,68.80
2023-04-03T19:26:25.173Z,70.34
2023-04-03T19:29:29.838Z,67.92
2023-04-03T19:32:38.506Z,68.13
2023-04-03T19:35:43.014Z,66.61
2023-04-03T19:38:47.198Z,68.38
2023-04-03T19:41:59.012Z,68.09
2023-04-03T19:45:06.387Z,68.73
2023-04-03T19:48:11.915Z,66.85
2023-04-03T19:51:15.915Z,67.49
2023-04-03T19:54:19.736Z,67.47
2023-04-03T19:57:23.368Z,65.77
2023-04-03T20:00:28.615Z,65.35
2023-04-03T20:03:34.531Z,66.55
2023-04-03T20:06:39.165Z,64.41
2023-04-03T20:09:43.017Z,63.50
2023-04-03T20:12:47.829Z,64.56
2023-04-03T20:15:53.544Z,64.73
2023-04-03T20:18:59.520Z,65.21
2023-04-03T20:22:03.527Z,63.69
2023-04-03T20:25:09.932Z,65.22
2023-04-03T20:28:15.798Z,64.06
2023-04-03T20:31:19.721Z,66.73
2023-04-03T20:34:24.761Z,67.63
2023-04-03T20:37:29.137Z,68.31
2023-04-03T20:40:32.733Z,69.50
2023-04-03T20:43:38.452Z,69.31
2023-04-03T20:46:52.206Z,68.75
2023-04-03T20:49:58.508Z,69.53
2023-04-03T20:53:03.376Z,71.42
2023-04-03T20:56:09.152Z,71.92
2023-04-03T20:59:14.171Z,71.68
2023-04-03T21:02:18.696Z,74.72
2023-04-03T21:05:26.230Z,74.04
2023-04-03T21:09:06.863Z,75.83
2023-04-03T21:12:47.718Z,77.73
2023-04-03T21:15:52.458Z,78.15
2023-04-03T21:19:09.273Z,78.87
2023-04-03T21:22:14.783Z,79.57
2023-04-03T21:25:18.349Z,79.98
2023-04-03T21:28:23.067Z,78.81
2023-04-03T21:31:54.044Z,77.10
2023-04-03T21:34:59.328Z,77.88
2023-04-03T21:38:02.752Z,77.67
2023-04-03T21:41:07.516Z,76.63
2023-04-03T21:44:11.440Z,76.73
2023-04-03T21:47:16.201Z,76.92
2023-04-03T21:50:21.469Z,76.57
2023-04-03T21:53:28.565Z,75.96
2023-04-03T21:56:32.682Z,75.37
2023-04-03T21:59:37.132Z,76.83
2023-04-03T22:02:41.283Z,78.04
2023-04-03T22:05:46.722Z,77.92
2023-04-03T22:08:50.717Z,77.25
2023-04-03T22:11:55.237Z,74.84
2023-04-03T22:14:59.060Z,75.22
2023-04-03T22:18:03.102Z,74.69
2023-04-03T22:21:08.689Z,74.71
2023-04-03T22:24:12.880Z,75.28
2023-04-03T22:27:16.800Z,74.50
2023-04-03T22:30:20.821Z,75.01
2023-04-03T22:33:24.478Z,76.61
2023-04-03T22:36:30.021Z,77.05
2023-04-03T22:39:33.600Z,78.60
2023-04-03T22:42:37.717Z,79.17
2023-04-03T22:45:48.444Z,79.20
2023-04-03T22:48:52.385Z,79.92
2023-04-03T22:51:57.204Z,79.72
2023-04-03T22:55:12.832Z,79.17
2023-04-03T22:58:25.886Z,84.27
2023-04-03T23:01:30.277Z,85.14
2023-04-03T23:04:33.980Z,87.08
2023-04-03T23:07:39.311Z,89.34
2023-04-03T23:10:43.132Z,90.87
2023-04-03T23:13:47.337Z,92.97
2023-04-03T23:16:51.031Z,93.33
2023-04-03T23:19:55.189Z,93.30
2023-04-03T23:23:00.744Z,97.73
2023-04-03T23:26:04.685Z,100.00
2023-04-03T23:29:08.304Z,100.00
2023-04-03T23:32:12.183Z,100.00
2023-04-03T23:35:16.141Z,100.00
2023-04-03T23:38:21.526Z,100.00
2023-04-03T23:41:25.124Z,100.00
2023-04-03T23:44:29.376Z,100.00
2023-04-03T23:47:32.922Z,99.63
2023-04-03T23:50:37.563Z,98.43
2023-04-03T23:53:42.791Z,98.02
2023-04-03T23:56:46.716Z,100.00
2023-04-03T23:59:50.351Z,100.00
